Time;durP1;ratioP1;P1;durP2;ratioP2;P2;SDS_P1;SDS_P2;PMS_P1;PMS_P2;Temp;Humidity;BMP_temperature;BMP_pressure;BME280_temperature;BME280_humidity;BME280_pressure;Samples;Min_cycle;Max_cycle;Signal;HPM_P1;HPM_P2
2022/10/01 00:03:48;;;;;;;2.00;1.80;;;;;;;-146.19;100.00;65364.44;10279755;28;20051;-61
2022/10/01 00:09:07;;;;;;;2.00;1.80;;;;;;;-146.19;100.00;65364.44;10315232;28;20039;-62
2022/10/01 00:14:26;;;;;;;2.60;1.95;;;;;;;-146.19;100.00;65364.44;10306330;28;20055;-60
2022/10/01 00:19:46;;;;;;;2.45;2.00;;;;;;;-146.19;100.00;65364.44;10308316;28;20054;-61
2022/10/01 00:25:06;;;;;;;2.70;1.90;;;;;;;-146.19;100.00;65364.44;10302649;28;20061;-61
2022/10/01 00:30:26;;;;;;;2.65;2.38;;;;;;;-146.19;100.00;65364.44;10304360;28;20051;-61
2022/10/01 00:35:45;;;;;;;2.00;1.80;;;;;;;-146.19;100.00;65364.44;10292509;28;20104;-60
2022/10/01 00:41:05;;;;;;;2.10;1.90;;;;;;;-146.19;100.00;65364.44;10309136;28;20546;-61
2022/10/01 00:46:42;;;;;;;2.10;1.90;;;;;;;-146.19;100.00;65364.44;10298845;28;20054;-61
2022/10/01 00:52:05;;;;;;;3.13;1.92;;;;;;;-146.19;100.00;65364.44;10313841;28;20066;-61
2022/10/01 00:57:26;;;;;;;2.35;2.13;;;;;;;-146.19;100.00;65364.44;10306392;28;20051;-61
2022/10/01 01:02:45;;;;;;;1.88;1.73;;;;;;;-146.19;100.00;65364.44;10297075;28;20410;-61
2022/10/01 01:08:06;;;;;;;2.72;1.90;;;;;;;-146.19;100.00;65364.44;10306424;28;20191;-61
2022/10/01 01:13:32;;;;;;;2.08;1.88;;;;;;;-146.19;100.00;65364.44;10294848;28;20059;-61
2022/10/01 01:19:08;;;;;;;2.33;1.90;;;;;;;-146.19;100.00;65364.44;10289636;28;20051;-61
2022/10/01 01:24:38;;;;;;;2.38;1.85;;;;;;;-146.19;100.00;65364.44;10326699;28;20039;-61
2022/10/01 01:30:02;;;;;;;2.33;2.13;;;;;;;-146.19;100.00;65364.44;10300731;28;20405;-61
2022/10/01 01:35:30;;;;;;;2.20;1.90;;;;;;;-146.19;100.00;65364.44;10297046;28;20396;-61
2022/10/01 01:40:50;;;;;;;2.37;1.93;;;;;;;-146.19;100.00;65364.44;10274080;28;20050;-60
2022/10/01 01:46:11;;;;;;;2.38;1.90;;;;;;;-146.19;100.00;65364.44;10292734;28;20549;-61
2022/10/01 01:51:39;;;;;;;2.08;1.92;;;;;;;-146.19;100.00;65364.44;10322368;28;20413;-61
2022/10/01 01:56:58;;;;;;;2.05;1.80;;;;;;;-146.19;100.00;65364.44;10299817;28;20499;-61
2022/10/01 02:02:22;;;;;;;3.33;1.80;;;;;;;-146.19;100.00;65364.44;10291201;28;20051;-60
2022/10/01 02:07:58;;;;;;;2.35;1.85;;;;;;;-146.19;100.00;65364.44;10292637;28;20511;-60
2022/10/01 02:13:22;;;;;;;1.80;1.70;;;;;;;-146.19;100.00;65364.44;10310099;28;20035;-60
2022/10/01 02:18:51;;;;;;;2.17;1.80;;;;;;;-146.19;100.00;65364.44;10301725;28;20047;-61
2022/10/01 02:24:13;;;;;;;;;;;;;;;-146.19;100.00;65364.44;10296051;28;20133;-57
2022/10/01 02:29:33;;;;;;;1.85;1.70;;;;;;;-146.19;100.00;65364.44;10291940;28;19922;-61
2022/10/01 02:34:53;;;;;;;1.92;1.73;;;;;;;-146.19;100.00;65364.44;10285707;28;20062;-60
2022/10/01 02:40:15;;;;;;;1.80;1.70;;;;;;;-146.19;100.00;65364.44;10298589;28;20054;-60
2022/10/01 02:45:36;;;;;;;1.70;1.60;;;;;;;-146.19;100.00;65364.44;10283300;28;20057;-61
2022/10/01 02:51:09;;;;;;;1.70;1.60;;;;;;;-146.19;100.00;65364.44;10292373;28;20062;-58
2022/10/01 03:02:06;;;;;;;1.80;1.70;;;;;;;-146.19;100.00;65364.44;10300276;28;20046;-60
2022/10/01 03:07:28;;;;;;;1.83;1.73;;;;;;;-146.19;100.00;65364.44;10290443;28;20309;-61
2022/10/01 03:12:49;;;;;;;1.95;1.70;;;;;;;-146.19;100.00;65364.44;10292218;28;20054;-61
2022/10/01 03:18:09;;;;;;;1.88;1.70;;;;;;;-146.19;100.00;65364.44;10292375;28;20050;-61
2022/10/01 03:23:28;;;;;;;1.90;1.70;;;;;;;-146.19;100.00;65364.44;10291325;28;20062;-61
2022/10/01 03:28:48;;;;;;;1.70;1.60;;;;;;;-146.19;100.00;65364.44;10291354;28;20058;-61
2022/10/01 03:34:07;;;;;;;2.78;1.73;;;;;;;-146.19;100.00;65364.44;10302320;28;20110;-60
2022/10/01 03:39:27;;;;;;;2.20;1.85;;;;;;;-146.19;100.00;65364.44;10296342;28;20415;-60
2022/10/01 03:44:47;;;;;;;2.05;1.73;;;;;;;-146.19;100.00;65364.44;10292057;28;20400;-61
2022/10/01 03:50:07;;;;;;;1.85;1.67;;;;;;;-146.19;100.00;65364.44;10298935;28;20097;-61
2022/10/01 03:55:26;;;;;;;2.10;1.90;;;;;;;-146.19;100.00;65364.44;10298363;28;20062;-61
2022/10/01 04:00:46;;;;;;;2.00;1.80;;;;;;;-146.19;100.00;65364.44;10303542;28;20046;-61
2022/10/01 04:06:06;;;;;;;2.25;1.70;;;;;;;-146.19;100.00;65364.44;10303377;28;20066;-61
2022/10/01 04:11:26;;;;;;;2.03;1.77;;;;;;;-146.19;100.00;65364.44;10311071;28;20062;-61
2022/10/01 04:16:45;;;;;;;2.00;1.80;;;;;;;-146.19;100.00;65364.44;10309926;28;20407;-61
2022/10/01 04:22:04;;;;;;;2.03;1.83;;;;;;;-146.19;100.00;65364.44;10297482;28;20071;-61
2022/10/01 04:27:24;;;;;;;2.28;1.83;;;;;;;-146.19;100.00;65364.44;10320628;28;20475;-61
2022/10/01 04:32:44;;;;;;;1.70;1.60;;;;;;;-146.19;100.00;65364.44;10300003;28;20055;-61
2022/10/01 04:38:17;;;;;;;2.03;1.83;;;;;;;-146.19;100.00;65364.44;10289294;28;20051;-60
2022/10/01 04:43:36;;;;;;;1.80;1.70;;;;;;;-146.19;100.00;65364.44;10314367;28;20058;-61
2022/10/01 04:48:55;;;;;;;2.00;1.80;;;;;;;-146.19;100.00;65364.44;10296669;28;20062;-61
2022/10/01 04:54:14;;;;;;;1.83;1.63;;;;;;;-146.19;100.00;65364.44;10295420;28;20054;-61
2022/10/01 04:59:35;;;;;;;1.77;1.67;;;;;;;-146.19;100.00;65364.44;10296234;28;20138;-61
2022/10/01 05:04:55;;;;;;;1.63;1.52;;;;;;;-146.19;100.00;65364.44;10314687;28;20057;-61
2022/10/01 05:10:17;;;;;;;1.60;1.50;;;;;;;-146.19;100.00;65364.44;10308157;28;20403;-61
2022/10/01 05:15:37;;;;;;;1.77;1.67;;;;;;;-146.19;100.00;65364.44;10294600;28;20055;-61
2022/10/01 05:20:56;;;;;;;1.70;1.60;;;;;;;-146.19;100.00;65364.44;10316873;28;20062;-60
2022/10/01 05:26:16;;;;;;;1.80;1.65;;;;;;;-146.19;100.00;65364.44;10294996;28;20058;-60
2022/10/01 05:31:35;;;;;;;2.13;1.80;;;;;;;-146.19;100.00;65364.44;10304559;28;20038;-61
2022/10/01 05:36:54;;;;;;;1.65;1.55;;;;;;;-146.19;100.00;65364.44;10294007;28;20521;-61
2022/10/01 05:42:13;;;;;;;1.73;1.63;;;;;;;-146.19;100.00;65364.44;10296459;28;20051;-61
2022/10/01 05:47:33;;;;;;;2.05;1.85;;;;;;;-146.19;100.00;65364.44;10293952;28;20097;-60
2022/10/01 05:52:53;;;;;;;1.95;1.73;;;;;;;-146.19;100.00;65364.44;10293256;28;20054;-61
2022/10/01 05:58:13;;;;;;;1.50;1.40;;;;;;;-146.19;100.00;65364.44;10293053;28;20054;-60
2022/10/01 06:03:32;;;;;;;1.90;1.65;;;;;;;-146.19;100.00;65364.44;10293478;28;20067;-60
2022/10/01 06:08:52;;;;;;;1.67;1.55;;;;;;;-146.19;100.00;65364.44;10293204;28;20202;-60
2022/10/01 06:14:12;;;;;;;1.75;1.65;;;;;;;-146.19;100.00;65364.44;10293093;28;20058;-61
2022/10/01 06:19:31;;;;;;;1.60;1.50;;;;;;;-146.19;100.00;65364.44;10305392;28;20058;-61
2022/10/01 06:24:50;;;;;;;1.80;1.70;;;;;;;-146.19;100.00;65364.44;10311544;28;20047;-60
2022/10/01 06:30:10;;;;;;;1.60;1.50;;;;;;;-146.19;100.00;65364.44;10291292;28;20109;-61
2022/10/01 06:35:31;;;;;;;1.80;1.70;;;;;;;-146.19;100.00;65364.44;10292375;28;20055;-61
2022/10/01 06:40:54;;;;;;;1.77;1.67;;;;;;;-146.19;100.00;65364.44;10292405;28;20050;-60
2022/10/01 06:46:13;;;;;;;1.50;1.40;;;;;;;-146.19;100.00;65364.44;10285372;28;20050;-60
2022/10/01 06:57:11;;;;;;;1.40;1.30;;;;;;;-146.19;100.00;65364.44;10304592;28;20057;-60
2022/10/01 07:02:31;;;;;;;1.48;1.38;;;;;;;-146.19;100.00;65364.44;10297244;28;20062;-60
2022/10/01 07:07:50;;;;;;;1.63;1.52;;;;;;;-146.19;100.00;65364.44;10291566;28;20047;-59
2022/10/01 07:13:35;;;;;;;1.52;1.42;;;;;;;-146.19;100.00;65364.44;10294892;28;20054;-61
2022/10/01 07:18:54;;;;;;;1.55;1.45;;;;;;;-146.19;100.00;65364.44;10215351;29;20056;-60
2022/10/01 07:24:13;;;;;;;1.70;1.55;;;;;;;-146.19;100.00;65364.44;10220814;29;20063;-60
2022/10/01 07:29:33;;;;;;;1.48;1.38;;;;;;;-146.19;100.00;65364.44;10242996;29;20047;-60
2022/10/01 07:34:52;;;;;;;1.50;1.40;;;;;;;-146.19;100.00;65364.44;10254898;28;20487;-60
2022/10/01 07:40:15;;;;;;;1.80;1.48;;;;;;;-146.19;100.00;65364.44;10213848;29;20056;-59
2022/10/01 07:45:34;;;;;;;1.40;1.30;;;;;;;-146.19;100.00;65364.44;10218612;29;20055;-60
2022/10/01 07:50:53;;;;;;;1.25;1.15;;;;;;;-146.19;100.00;65364.44;10310839;28;20403;-60
2022/10/01 07:56:13;;;;;;;3.15;1.60;;;;;;;-146.19;100.00;65364.44;10292650;28;20059;-60
2022/10/01 08:01:32;;;;;;;1.50;1.40;;;;;;;-146.19;100.00;65364.44;10329835;28;20049;-59
2022/10/01 08:06:52;;;;;;;1.55;1.45;;;;;;;-146.19;100.00;65364.44;10311315;28;20046;-60
2022/10/01 08:12:12;;;;;;;1.50;1.40;;;;;;;-146.19;100.00;65364.44;10311062;28;20383;-60
2022/10/01 08:17:32;;;;;;;1.40;1.30;;;;;;;-146.19;100.00;65364.44;10303234;28;20054;-60
2022/10/01 08:22:52;;;;;;;1.30;1.20;;;;;;;-146.19;100.00;65364.44;10297700;28;20051;-60
2022/10/01 08:28:11;;;;;;;1.20;1.10;;;;;;;-146.19;100.00;65364.44;10308142;28;20483;-56
2022/10/01 08:33:31;;;;;;;1.30;1.20;;;;;;;-146.19;100.00;65364.44;10299782;28;20065;-60
2022/10/01 08:38:50;;;;;;;1.35;1.25;;;;;;;-146.19;100.00;65364.44;10296896;28;20053;-59
2022/10/01 08:44:20;;;;;;;1.38;1.27;;;;;;;-146.19;100.00;65364.44;10303296;28;20053;-60
2022/10/01 08:50:22;;;;;;;1.40;1.30;;;;;;;-146.19;100.00;65364.44;10297167;28;20058;-60
2022/10/01 08:55:42;;;;;;;1.52;1.20;;;;;;;-146.19;100.00;65364.44;10309836;28;20043;-60
2022/10/01 09:01:01;;;;;;;1.48;1.38;;;;;;;-146.19;100.00;65364.44;10296136;28;20085;-61
2022/10/01 09:06:28;;;;;;;1.20;1.10;;;;;;;-146.19;100.00;65364.44;10298648;28;20062;-59
2022/10/01 09:12:08;;;;;;;1.30;1.20;;;;;;;-146.19;100.00;65364.44;10295902;28;20058;-61
2022/10/01 09:17:56;;;;;;;1.27;1.17;;;;;;;-146.19;100.00;65364.44;10302380;28;20053;-60
2022/10/01 09:23:23;;;;;;;1.23;1.13;;;;;;;-146.19;100.00;65364.44;10295071;28;20058;-61
2022/10/01 09:28:47;;;;;;;1.30;1.20;;;;;;;-146.19;100.00;65364.44;10307819;28;20127;-60
2022/10/01 09:34:12;;;;;;;1.40;1.30;;;;;;;-146.19;100.00;65364.44;10297061;28;20625;-60
2022/10/01 09:40:16;;;;;;;1.27;1.17;;;;;;;-146.19;100.00;65364.44;10316036;28;20046;-61
2022/10/01 09:45:36;;;;;;;1.50;1.38;;;;;;;-146.19;100.00;65364.44;10299038;28;20054;-60
2022/10/01 09:51:01;;;;;;;1.20;1.10;;;;;;;-146.19;100.00;65364.44;10294270;28;20054;-59
2022/10/01 09:56:27;;;;;;;1.40;1.30;;;;;;;-146.19;100.00;65364.44;10279240;28;20081;-61
2022/10/01 10:01:55;;;;;;;1.35;1.25;;;;;;;-146.19;100.00;65364.44;10282078;28;20055;-60
2022/10/01 10:07:17;;;;;;;1.20;1.10;;;;;;;-146.19;100.00;65364.44;10278930;28;20077;-60
2022/10/01 10:12:37;;;;;;;1.00;0.95;;;;;;;-146.19;100.00;65364.44;10304349;28;20112;-60
2022/10/01 10:18:16;;;;;;;1.20;1.10;;;;;;;-146.19;100.00;65364.44;10296088;28;20058;-60
2022/10/01 10:23:46;;;;;;;1.00;1.00;;;;;;;-146.19;100.00;65364.44;10304023;28;20133;-60
2022/10/01 10:29:11;;;;;;;1.17;1.08;;;;;;;-146.19;100.00;65364.44;10292582;28;20057;-59
2022/10/01 10:34:38;;;;;;;1.08;1.00;;;;;;;-146.19;100.00;65364.44;10280999;28;20062;-60
2022/10/01 10:39:58;;;;;;;1.13;1.02;;;;;;;-146.19;100.00;65364.44;10278135;28;20414;-61
2022/10/01 10:45:21;;;;;;;1.08;1.05;;;;;;;-146.19;100.00;65364.44;10291786;28;20054;-60
2022/10/01 10:50:43;;;;;;;1.27;1.10;;;;;;;-146.19;100.00;65364.44;10294308;28;20419;-61
2022/10/01 10:56:04;;;;;;;1.05;1.05;;;;;;;-146.19;100.00;65364.44;10267687;28;20517;-60
2022/10/01 11:01:28;;;;;;;1.10;1.02;;;;;;;-146.19;100.00;65364.44;10284960;28;20055;-61
2022/10/01 11:06:56;;;;;;;0.90;0.90;;;;;;;-146.19;100.00;65364.44;10291754;28;20109;-60
2022/10/01 11:12:32;;;;;;;0.80;0.80;;;;;;;-146.19;100.00;65364.44;10290463;28;20059;-60
2022/10/01 11:18:15;;;;;;;0.88;0.88;;;;;;;-146.19;100.00;65364.44;10291084;28;20427;-60
2022/10/01 11:23:55;;;;;;;1.40;0.90;;;;;;;-146.19;100.00;65364.44;10296777;28;20039;-60
2022/10/01 11:29:24;;;;;;;1.17;1.08;;;;;;;-146.19;100.00;65364.44;10304181;28;20046;-61
2022/10/01 11:35:10;;;;;;;0.75;0.75;;;;;;;-146.19;100.00;65364.44;10286729;28;20047;-60
2022/10/01 11:40:50;;;;;;;1.00;1.00;;;;;;;-146.19;100.00;65364.44;10297583;28;20073;-60
2022/10/01 11:46:14;;;;;;;1.08;1.00;;;;;;;-146.19;100.00;65364.44;10291291;28;20503;-60
2022/10/01 11:51:42;;;;;;;1.02;1.00;;;;;;;-146.19;100.00;65364.44;10268333;28;20058;-59
2022/10/01 12:02:57;;;;;;;0.90;0.90;;;;;;;-146.19;100.00;65364.44;10309131;28;20465;-60
2022/10/01 12:08:23;;;;;;;1.00;0.90;;;;;;;-146.19;100.00;65364.44;10301339;28;20380;-60
2022/10/01 12:13:54;;;;;;;0.93;0.90;;;;;;;-146.19;100.00;65364.44;10285753;28;20573;-60
2022/10/01 12:19:29;;;;;;;1.10;0.90;;;;;;;-146.19;100.00;65364.44;10283217;28;20051;-60
2022/10/01 12:24:49;;;;;;;0.93;0.90;;;;;;;-146.19;100.00;65364.44;10293079;28;20506;-60
2022/10/01 12:30:21;;;;;;;0.98;0.98;;;;;;;-146.19;100.00;65364.44;10307831;28;20059;-60
2022/10/01 12:36:10;;;;;;;0.90;0.90;;;;;;;-146.19;100.00;65364.44;10296003;28;20062;-61
2022/10/01 12:41:56;;;;;;;0.90;0.90;;;;;;;-146.19;100.00;65364.44;10328374;28;20446;-60
2022/10/01 12:47:37;;;;;;;0.98;0.85;;;;;;;-146.19;100.00;65364.44;10298433;28;20059;-60
2022/10/01 12:53:18;;;;;;;1.08;0.90;;;;;;;-146.19;100.00;65364.44;10289099;28;20063;-60
2022/10/01 12:59:05;;;;;;;0.73;0.73;;;;;;;-146.19;100.00;65364.44;10287473;28;20051;-59
2022/10/01 13:04:24;;;;;;;0.98;0.93;;;;;;;-146.19;100.00;65364.44;10293161;28;20039;-60
2022/10/01 13:09:59;;;;;;;0.93;0.90;;;;;;;-146.19;100.00;65364.44;10314943;28;20038;-60
2022/10/01 13:15:31;;;;;;;0.85;0.85;;;;;;;-146.19;100.00;65364.44;10297526;28;20066;-60
2022/10/01 13:21:09;;;;;;;0.95;0.85;;;;;;;-146.19;100.00;65364.44;10280718;28;20049;-61
2022/10/01 13:26:35;;;;;;;0.77;0.77;;;;;;;-146.19;100.00;65364.44;10307845;28;20034;-60
2022/10/01 13:32:01;;;;;;;0.80;0.75;;;;;;;-146.19;100.00;65364.44;10296841;28;20058;-61
2022/10/01 13:37:37;;;;;;;0.90;0.90;;;;;;;-146.19;100.00;65364.44;10279252;28;20491;-60
2022/10/01 13:43:20;;;;;;;0.80;0.80;;;;;;;-146.19;100.00;65364.44;10301952;28;20066;-60
2022/10/01 13:48:46;;;;;;;0.95;0.85;;;;;;;-146.19;100.00;65364.44;10287970;28;20174;-60
2022/10/01 13:54:08;;;;;;;0.80;0.70;;;;;;;-146.19;100.00;65364.44;10305112;28;20113;-57
2022/10/01 13:59:34;;;;;;;0.63;0.60;;;;;;;-146.19;100.00;65364.44;10296903;28;20054;-60
2022/10/01 14:04:55;;;;;;;0.95;0.90;;;;;;;-146.19;100.00;65364.44;10293485;28;20051;-61
2022/10/01 14:10:15;;;;;;;0.80;0.75;;;;;;;-146.19;100.00;65364.44;10319499;28;20111;-60
2022/10/01 14:15:58;;;;;;;0.88;0.88;;;;;;;-146.19;100.00;65364.44;10303318;28;20059;-60
2022/10/01 14:21:50;;;;;;;0.70;0.70;;;;;;;-146.19;100.00;65364.44;10300898;28;20056;-60
2022/10/01 14:27:29;;;;;;;0.70;0.70;;;;;;;-146.19;100.00;65364.44;10306860;28;20553;-60
2022/10/01 14:33:04;;;;;;;0.70;0.70;;;;;;;-146.19;100.00;65364.44;10291531;28;20058;-60
2022/10/01 14:38:23;;;;;;;0.80;0.80;;;;;;;-146.19;100.00;65364.44;10292161;28;20055;-60
2022/10/01 14:43:43;;;;;;;1.08;0.80;;;;;;;-146.19;100.00;65364.44;10282697;28;20054;-60
2022/10/01 14:49:03;;;;;;;0.80;0.80;;;;;;;-146.19;100.00;65364.44;10291147;28;20089;-60
2022/10/01 14:54:23;;;;;;;0.75;0.75;;;;;;;-146.19;100.00;65364.44;10320955;28;20402;-60
2022/10/01 14:59:45;;;;;;;0.70;0.70;;;;;;;-146.19;100.00;65364.44;10320031;28;20513;-61
2022/10/01 15:05:17;;;;;;;0.70;0.70;;;;;;;-146.19;100.00;65364.44;10277332;28;20082;-58
2022/10/01 15:10:39;;;;;;;0.80;0.80;;;;;;;-146.19;100.00;65364.44;10289934;28;20499;-60
2022/10/01 15:15:59;;;;;;;0.88;0.88;;;;;;;-146.19;100.00;65364.44;10304873;28;20078;-60
2022/10/01 15:21:46;;;;;;;0.93;0.70;;;;;;;-146.19;100.00;65364.44;10277094;28;20055;-61
2022/10/01 15:27:12;;;;;;;0.80;0.80;;;;;;;-146.19;100.00;65364.44;10300628;28;20437;-60
2022/10/01 15:32:31;;;;;;;0.80;0.80;;;;;;;-146.19;100.00;65364.44;10284861;28;20524;-60
2022/10/01 15:37:51;;;;;;;0.80;0.80;;;;;;;-146.19;100.00;65364.44;10298039;28;20392;-60
2022/10/01 15:43:13;;;;;;;0.70;0.70;;;;;;;-146.19;100.00;65364.44;10293493;28;20043;-60
2022/10/01 15:48:32;;;;;;;0.73;0.73;;;;;;;-146.19;100.00;65364.44;10312274;28;20047;-60
2022/10/01 15:53:53;;;;;;;0.80;0.77;;;;;;;-146.19;100.00;65364.44;10298767;28;20058;-60
2022/10/01 15:59:16;;;;;;;0.70;0.70;;;;;;;-146.19;100.00;65364.44;10298701;28;20047;-60
2022/10/01 16:04:36;;;;;;;0.65;0.65;;;;;;;-146.19;100.00;65364.44;10306895;28;20066;-60
2022/10/01 16:09:57;;;;;;;0.77;0.77;;;;;;;-146.19;100.00;65364.44;10311452;28;20561;-60
2022/10/01 16:15:26;;;;;;;0.77;0.77;;;;;;;-146.19;100.00;65364.44;10297899;28;20066;-60
2022/10/01 16:20:55;;;;;;;0.68;0.68;;;;;;;-146.19;100.00;65364.44;10312366;28;20058;-60
2022/10/01 16:26:31;;;;;;;0.70;0.70;;;;;;;-146.19;100.00;65364.44;10297624;28;20499;-60
2022/10/01 16:31:50;;;;;;;0.70;0.70;;;;;;;-146.19;100.00;65364.44;10289026;28;20043;-60
2022/10/01 16:37:10;;;;;;;0.65;0.65;;;;;;;-146.19;100.00;65364.44;10299953;28;20204;-60
2022/10/01 16:42:32;;;;;;;0.77;0.75;;;;;;;-146.19;100.00;65364.44;10302921;28;20104;-60
2022/10/01 16:47:52;;;;;;;0.70;0.70;;;;;;;-146.19;100.00;65364.44;10295448;28;20498;-59
2022/10/01 16:53:14;;;;;;;0.80;0.80;;;;;;;-146.19;100.00;65364.44;10298502;28;20051;-59
2022/10/01 16:58:33;;;;;;;0.70;0.70;;;;;;;-146.19;100.00;65364.44;10310202;28;20109;-60
2022/10/01 17:03:53;;;;;;;0.70;0.70;;;;;;;-146.19;100.00;65364.44;10309105;28;20039;-60
2022/10/01 17:09:12;;;;;;;0.70;0.70;;;;;;;-146.19;100.00;65364.44;10308890;28;20557;-59
2022/10/01 17:14:32;;;;;;;0.70;0.70;;;;;;;-146.19;100.00;65364.44;10299008;28;20070;-58
2022/10/01 17:19:51;;;;;;;0.50;0.50;;;;;;;-146.19;100.00;65364.44;10297670;28;20483;-60
2022/10/01 17:25:16;;;;;;;0.63;0.63;;;;;;;-146.19;100.00;65364.44;10313317;28;20404;-60
2022/10/01 17:30:39;;;;;;;0.60;0.60;;;;;;;-146.19;100.00;65364.44;10295241;28;20467;-60
2022/10/01 17:35:59;;;;;;;0.65;0.65;;;;;;;-146.19;100.00;65364.44;10294449;28;20502;-59
2022/10/01 17:41:18;;;;;;;0.60;0.60;;;;;;;-146.19;100.00;65364.44;10300141;28;20051;-60
2022/10/01 17:46:37;;;;;;;0.60;0.60;;;;;;;-146.19;100.00;65364.44;10294292;28;20117;-59
2022/10/01 17:51:57;;;;;;;0.68;0.68;;;;;;;-146.19;100.00;65364.44;10294791;28;20078;-59
2022/10/01 17:57:16;;;;;;;0.60;0.60;;;;;;;-146.19;100.00;65364.44;10310123;28;20058;-60
2022/10/01 18:02:35;;;;;;;0.70;0.70;;;;;;;-146.19;100.00;65364.44;10293342;28;20544;-60
2022/10/01 18:07:55;;;;;;;0.60;0.60;;;;;;;-146.19;100.00;65364.44;10296445;28;20039;-60
2022/10/01 18:13:14;;;;;;;0.60;0.60;;;;;;;-146.19;100.00;65364.44;10299313;28;20054;-60
2022/10/01 18:18:34;;;;;;;0.60;0.60;;;;;;;-146.19;100.00;65364.44;10299497;28;20046;-60
2022/10/01 18:23:54;;;;;;;0.60;0.60;;;;;;;-146.19;100.00;65364.44;10296074;28;20055;-60
2022/10/01 18:29:22;;;;;;;0.68;0.68;;;;;;;-146.19;100.00;65364.44;10305892;28;20102;-60
2022/10/01 18:34:53;;;;;;;0.60;0.60;;;;;;;-146.19;100.00;65364.44;10288230;28;20054;-60
2022/10/01 18:40:22;;;;;;;0.68;0.68;;;;;;;-146.19;100.00;65364.44;10305522;28;20046;-60
2022/10/01 18:45:54;;;;;;;0.50;0.50;;;;;;;-146.19;100.00;65364.44;10243609;28;20550;-60
2022/10/01 18:51:52;;;;;;;0.75;0.70;;;;;;;-146.19;100.00;65364.44;10312853;28;20070;-61
2022/10/01 18:57:37;;;;;;;1.50;0.70;;;;;;;-146.19;100.00;65364.44;10304189;28;20467;-60
2022/10/01 19:02:57;;;;;;;0.50;0.50;;;;;;;-146.19;100.00;65364.44;10288122;28;20050;-60
2022/10/01 19:08:25;;;;;;;0.60;0.50;;;;;;;-146.19;100.00;65364.44;10297786;28;20059;-60
2022/10/01 19:13:52;;;;;;;0.77;0.77;;;;;;;-146.19;100.00;65364.44;10320621;28;20487;-60
2022/10/01 19:19:12;;;;;;;0.57;0.57;;;;;;;-146.19;100.00;65364.44;10315084;28;20097;-60
2022/10/01 19:24:54;;;;;;;0.63;0.63;;;;;;;-146.19;100.00;65364.44;10313262;28;20066;-60
2022/10/01 19:30:15;;;;;;;0.50;0.50;;;;;;;-146.19;100.00;65364.44;10304767;28;20047;-60
2022/10/01 19:35:52;;;;;;;0.50;0.50;;;;;;;-146.19;100.00;65364.44;10328581;28;20098;-60
2022/10/01 19:41:35;;;;;;;0.82;0.60;;;;;;;-146.19;100.00;65364.44;10280795;28;20050;-60
2022/10/01 19:46:57;;;;;;;0.50;0.50;;;;;;;-146.19;100.00;65364.44;10313454;28;20049;-60
2022/10/01 19:52:19;;;;;;;0.50;0.50;;;;;;;-146.19;100.00;65364.44;10292472;28;20531;-60
2022/10/01 19:57:40;;;;;;;0.60;0.60;;;;;;;-146.19;100.00;65364.44;10291305;28;20057;-60
2022/10/01 20:03:09;;;;;;;0.47;0.47;;;;;;;-146.19;100.00;65364.44;10303679;28;20066;-60
2022/10/01 20:09:02;;;;;;;0.67;0.60;;;;;;;-146.19;100.00;65364.44;10304416;28;20102;-60
2022/10/01 20:15:08;;;;;;;0.50;0.50;;;;;;;-146.19;100.00;65364.44;10308298;28;20062;-60
2022/10/01 20:20:37;;;;;;;0.52;0.50;;;;;;;-146.19;100.00;65364.44;10290616;28;20051;-59
2022/10/01 20:26:08;;;;;;;0.40;0.40;;;;;;;-146.19;100.00;65364.44;10298229;28;20174;-60
2022/10/01 20:31:59;;;;;;;0.50;0.50;;;;;;;-146.19;100.00;65364.44;10300440;28;20042;-60
2022/10/01 20:37:33;;;;;;;0.50;0.50;;;;;;;-146.19;100.00;65364.44;10307773;28;20054;-60
2022/10/01 20:43:20;;;;;;;0.50;0.50;;;;;;;-146.19;100.00;65364.44;10307123;28;20050;-60
2022/10/01 20:48:46;;;;;;;0.40;0.40;;;;;;;-146.19;100.00;65364.44;10289411;28;20051;-60
2022/10/01 20:54:14;;;;;;;0.50;0.50;;;;;;;-146.19;100.00;65364.44;10296545;28;20054;-60
2022/10/01 20:59:46;;;;;;;0.53;0.53;;;;;;;-146.19;100.00;65364.44;10295765;28;20086;-60
2022/10/01 21:05:11;;;;;;;0.47;0.47;;;;;;;-146.19;100.00;65364.44;10302111;28;20038;-57
2022/10/01 21:10:43;;;;;;;0.50;0.50;;;;;;;-146.19;100.00;65364.44;10289979;28;20050;-60
2022/10/01 21:16:31;;;;;;;0.47;0.47;;;;;;;-146.19;100.00;65364.44;10298481;28;20128;-60
2022/10/01 21:22:18;;;;;;;0.40;0.40;;;;;;;-146.19;100.00;65364.44;10299053;28;20096;-60
2022/10/01 21:27:45;;;;;;;0.40;0.40;;;;;;;-146.19;100.00;65364.44;10287169;28;20047;-60
2022/10/01 21:33:19;;;;;;;0.50;0.50;;;;;;;-146.19;100.00;65364.44;10319179;28;20486;-60
2022/10/01 21:38:48;;;;;;;0.57;0.50;;;;;;;-146.19;100.00;65364.44;10290725;28;20052;-60
2022/10/01 21:44:49;;;;;;;0.60;0.60;;;;;;;-146.19;100.00;65364.44;10291534;28;20506;-60
2022/10/01 21:50:26;;;;;;;0.40;0.40;;;;;;;-146.19;100.00;65364.44;10294030;28;20059;-60
2022/10/01 21:56:05;;;;;;;0.40;0.40;;;;;;;-146.19;100.00;65364.44;10294317;28;20077;-60
2022/10/01 22:01:43;;;;;;;;;;;;;;;-146.19;100.00;65364.44;10301928;28;20050;-60
2022/10/01 22:07:20;;;;;;;0.50;0.50;;;;;;;-146.19;100.00;65364.44;10285359;28;19926;-60
2022/10/01 22:12:42;;;;;;;0.35;0.35;;;;;;;-146.19;100.00;65364.44;10309036;28;20051;-58
2022/10/01 22:18:04;;;;;;;0.65;0.40;;;;;;;-146.19;100.00;65364.44;10281143;28;20495;-59
2022/10/01 22:23:23;;;;;;;0.70;0.57;;;;;;;-146.19;100.00;65364.44;10305234;28;20105;-60
2022/10/01 22:28:47;;;;;;;0.40;0.40;;;;;;;-146.19;100.00;65364.44;10316833;28;20043;-60
2022/10/01 22:34:11;;;;;;;0.40;0.40;;;;;;;-146.19;100.00;65364.44;10281260;28;20129;-60
2022/10/01 22:39:36;;;;;;;0.47;0.47;;;;;;;-146.19;100.00;65364.44;10278113;28;20101;-60
2022/10/01 22:45:00;;;;;;;0.40;0.40;;;;;;;-146.19;100.00;65364.44;10295633;28;20058;-59
2022/10/01 22:50:42;;;;;;;0.50;0.50;;;;;;;-146.19;100.00;65364.44;10288014;28;20050;-53
2022/10/01 22:56:01;;;;;;;0.38;0.38;;;;;;;-146.19;100.00;65364.44;10278053;28;20055;-60
2022/10/01 23:01:26;;;;;;;0.40;0.40;;;;;;;-146.19;100.00;65364.44;10290110;28;20055;-60
2022/10/01 23:07:10;;;;;;;0.60;0.60;;;;;;;-146.19;100.00;65364.44;10303934;28;20410;-59
2022/10/01 23:12:44;;;;;;;0.40;0.40;;;;;;;-146.19;100.00;65364.44;10294640;28;20054;-60
2022/10/01 23:18:07;;;;;;;0.40;0.40;;;;;;;-146.19;100.00;65364.44;10291859;28;20059;-59
2022/10/01 23:23:32;;;;;;;0.50;0.50;;;;;;;-146.19;100.00;65364.44;10318857;28;20057;-60
2022/10/01 23:29:18;;;;;;;0.30;0.30;;;;;;;-146.19;100.00;65364.44;10294957;28;20101;-60
2022/10/01 23:35:07;;;;;;;0.50;0.50;;;;;;;-146.19;100.00;65364.44;10282004;28;20054;-59
2022/10/01 23:40:32;;;;;;;0.50;0.50;;;;;;;-146.19;100.00;65364.44;10282851;28;20411;-60
2022/10/01 23:45:57;;;;;;;0.52;0.50;;;;;;;-146.19;100.00;65364.44;10309489;28;20105;-60
2022/10/01 23:51:35;;;;;;;0.40;0.40;;;;;;;-146.19;100.00;65364.44;10298239;28;20418;-60
2022/10/01 23:56:58;;;;;;;0.45;0.45;;;;;;;-146.19;100.00;65364.44;10303812;28;20054;-60
